createdAt,value
2023-08-14T00:01:12.231Z,5.97
2023-08-14T00:03:40.160Z,5.80
2023-08-14T00:06:08.017Z,6.27
2023-08-14T00:08:35.862Z,5.60
2023-08-14T00:11:05.118Z,5.93
2023-08-14T00:13:50.382Z,5.80
2023-08-14T00:16:18.868Z,9.27
2023-08-14T00:18:46.928Z,9.00
2023-08-14T00:21:14.852Z,7.80
2023-08-14T00:23:42.748Z,7.53
2023-08-14T00:26:12.495Z,7.00
2023-08-14T00:28:40.553Z,6.83
2023-08-14T00:31:08.455Z,6.90
2023-08-14T00:33:36.373Z,6.67
2023-08-14T00:36:06.612Z,6.10
2023-08-14T00:38:34.459Z,5.60
2023-08-14T00:41:02.723Z,5.93
2023-08-14T00:43:32.027Z,6.43
2023-08-14T00:46:00.126Z,6.17
2023-08-14T00:48:28.625Z,6.07
2023-08-14T00:50:56.894Z,6.57
2023-08-14T00:53:27.803Z,7.10
2023-08-14T00:55:56.221Z,7.30
2023-08-14T00:58:25.010Z,7.10
2023-08-14T01:00:56.401Z,6.23
2023-08-14T01:03:26.294Z,5.20
2023-08-14T01:05:54.194Z,4.23
2023-08-14T01:08:22.232Z,3.70
2023-08-14T01:11:00.315Z,4.60
2023-08-14T01:13:33.701Z,3.83
2023-08-14T01:16:07.639Z,3.53
2023-08-14T01:18:37.947Z,3.67
2023-08-14T01:21:14.838Z,3.50
2023-08-14T01:23:51.780Z,3.20
2023-08-14T01:26:21.073Z,3.20
2023-08-14T01:28:49.188Z,3.50
2023-08-14T01:31:17.024Z,3.37
2023-08-14T01:33:44.890Z,3.30
2023-08-14T01:36:21.832Z,3.27
2023-08-14T01:38:55.962Z,3.70
2023-08-14T01:41:33.000Z,3.30
2023-08-14T01:44:04.704Z,3.23
2023-08-14T01:46:35.282Z,3.43
2023-08-14T01:49:04.599Z,3.13
2023-08-14T01:51:33.574Z,3.33
2023-08-14T01:54:01.743Z,3.37
2023-08-14T01:56:30.936Z,3.60
2023-08-14T01:58:58.769Z,3.73
2023-08-14T02:01:26.755Z,3.70
2023-08-14T02:03:54.728Z,3.90
2023-08-14T02:06:22.747Z,4.03
2023-08-14T02:08:50.567Z,3.70
2023-08-14T02:11:18.571Z,3.63
2023-08-14T02:13:47.749Z,3.93
2023-08-14T02:16:15.630Z,4.10
2023-08-14T02:18:43.464Z,4.20
2023-08-14T02:21:11.308Z,3.87
2023-08-14T02:23:39.144Z,4.17
2023-08-14T02:26:06.951Z,4.50
2023-08-14T02:28:34.787Z,4.20
2023-08-14T02:31:05.466Z,3.93
2023-08-14T02:33:33.326Z,4.43
2023-08-14T02:36:01.156Z,3.97
2023-08-14T02:38:31.487Z,3.90
2023-08-14T02:40:59.409Z,4.23
2023-08-14T02:43:27.282Z,3.90
2023-08-14T02:45:55.207Z,4.17
2023-08-14T02:48:25.197Z,3.87
2023-08-14T02:50:52.987Z,3.17
2023-08-14T02:53:20.812Z,4.20
2023-08-14T02:55:52.440Z,3.50
2023-08-14T02:58:20.772Z,3.37
2023-08-14T03:00:49.227Z,3.37
2023-08-14T03:03:17.546Z,3.87
2023-08-14T03:05:46.829Z,2.90
2023-08-14T03:08:14.700Z,3.13
2023-08-14T03:10:42.557Z,3.07
2023-08-14T03:13:10.395Z,2.97
2023-08-14T03:15:38.217Z,3.10
2023-08-14T03:18:06.398Z,2.93
2023-08-14T03:20:34.326Z,2.90
2023-08-14T03:23:03.599Z,3.13
2023-08-14T03:25:31.427Z,2.60
2023-08-14T03:27:59.256Z,2.40
2023-08-14T03:30:27.327Z,2.70
2023-08-14T03:32:55.256Z,2.53
2023-08-14T03:35:23.140Z,2.97
2023-08-14T03:37:51.098Z,3.03
2023-08-14T03:40:20.350Z,3.73
2023-08-14T03:42:48.241Z,3.50
2023-08-14T03:45:16.100Z,3.60
2023-08-14T03:47:44.001Z,3.43
2023-08-14T03:50:11.965Z,3.53
2023-08-14T03:52:39.881Z,3.47
2023-08-14T03:55:07.977Z,3.43
2023-08-14T03:57:37.170Z,3.43
2023-08-14T04:00:05.983Z,2.70
2023-08-14T04:02:33.832Z,2.10
2023-08-14T04:05:01.667Z,2.40
2023-08-14T04:07:29.569Z,1.97
2023-08-14T04:09:57.406Z,1.87
2023-08-14T04:12:25.302Z,1.83
2023-08-14T04:14:54.548Z,2.20
2023-08-14T04:17:22.435Z,1.93
2023-08-14T04:19:50.239Z,1.90
2023-08-14T04:22:18.260Z,2.87
2023-08-14T04:24:47.392Z,2.63
2023-08-14T04:27:15.224Z,2.90
2023-08-14T04:29:43.055Z,3.43
2023-08-14T04:32:12.308Z,3.90
2023-08-14T04:34:40.171Z,4.27
2023-08-14T04:37:08.550Z,2.53
2023-08-14T04:39:36.662Z,2.53
2023-08-14T04:42:04.763Z,2.30
2023-08-14T04:44:32.628Z,2.37
2023-08-14T04:47:00.933Z,2.03
2023-08-14T04:49:30.997Z,2.20
2023-08-14T04:51:58.978Z,2.17
2023-08-14T04:54:27.542Z,2.60
2023-08-14T04:56:55.441Z,3.13
2023-08-14T04:59:23.289Z,2.97
2023-08-14T05:01:51.182Z,3.47
2023-08-14T05:04:19.215Z,3.10
2023-08-14T05:06:48.461Z,3.53
2023-08-14T05:09:26.724Z,3.77
2023-08-14T05:11:55.523Z,4.23
2023-08-14T05:14:23.428Z,4.17
2023-08-14T05:16:51.508Z,4.17
2023-08-14T05:19:19.527Z,4.80
2023-08-14T05:21:48.847Z,4.40
2023-08-14T05:24:17.612Z,4.73
2023-08-14T05:26:45.573Z,4.80
2023-08-14T05:29:13.418Z,4.40
2023-08-14T05:31:41.277Z,4.13
2023-08-14T05:34:09.147Z,3.70
2023-08-14T05:36:37.011Z,3.57
2023-08-14T05:39:09.641Z,4.03
2023-08-14T05:41:37.497Z,3.53
2023-08-14T05:44:06.574Z,3.40
2023-08-14T05:46:34.546Z,3.43
2023-08-14T05:49:02.431Z,3.77
2023-08-14T05:51:30.309Z,4.37
2023-08-14T05:53:58.167Z,3.10
2023-08-14T05:56:27.316Z,3.70
2023-08-14T05:58:58.757Z,2.90
2023-08-14T06:01:27.792Z,3.27
2023-08-14T06:03:56.140Z,3.17
2023-08-14T06:06:24.378Z,3.07
2023-08-14T06:08:52.224Z,3.37
2023-08-14T06:11:20.086Z,3.33
2023-08-14T06:13:49.280Z,3.37
2023-08-14T06:16:17.228Z,2.90
2023-08-14T06:18:45.100Z,3.30
2023-08-14T06:21:12.935Z,3.55
2023-08-14T06:23:40.749Z,3.80
2023-08-14T06:26:08.571Z,4.18
2023-08-14T06:28:36.385Z,3.20
2023-08-14T06:31:05.608Z,3.60
2023-08-14T06:33:33.523Z,3.58
2023-08-14T06:36:01.678Z,4.25
2023-08-14T06:38:29.708Z,3.80
2023-08-14T06:40:57.512Z,3.50
2023-08-14T06:43:25.468Z,3.30
2023-08-14T06:45:53.292Z,3.80
2023-08-14T06:48:22.986Z,3.40
2023-08-14T06:50:50.838Z,3.40
2023-08-14T06:53:18.682Z,2.95
2023-08-14T06:55:48.537Z,3.28
2023-08-14T06:58:16.385Z,3.30
2023-08-14T07:00:44.249Z,3.45
2023-08-14T07:03:12.108Z,3.58
2023-08-14T07:05:41.322Z,3.60
2023-08-14T07:08:09.177Z,3.60
2023-08-14T07:10:37.035Z,2.90
2023-08-14T07:13:05.552Z,3.17
2023-08-14T07:15:33.396Z,3.70
2023-08-14T07:18:01.288Z,3.35
2023-08-14T07:20:29.226Z,3.78
2023-08-14T07:22:58.510Z,4.40
2023-08-14T07:25:26.590Z,3.85
2023-08-14T07:27:54.556Z,3.72
2023-08-14T07:30:22.406Z,3.70
2023-08-14T07:32:50.279Z,3.72
2023-08-14T07:35:18.343Z,3.72
2023-08-14T07:37:46.179Z,3.45
2023-08-14T07:40:15.645Z,3.50
2023-08-14T07:42:43.696Z,3.75
2023-08-14T07:45:11.939Z,4.25
2023-08-14T07:47:39.842Z,3.63
2023-08-14T07:50:08.913Z,4.47
2023-08-14T07:52:37.055Z,4.13
2023-08-14T07:55:05.832Z,3.88
2023-08-14T07:57:35.046Z,3.70
2023-08-14T08:00:08.329Z,3.95
2023-08-14T08:02:36.188Z,3.70
2023-08-14T08:05:05.422Z,3.53
2023-08-14T08:07:33.248Z,3.58
2023-08-14T08:10:02.577Z,3.80
2023-08-14T08:12:30.782Z,3.10
2023-08-14T08:14:59.960Z,3.70
2023-08-14T08:17:27.833Z,3.33
2023-08-14T08:19:55.682Z,4.00
2023-08-14T08:22:23.568Z,3.47
2023-08-14T08:24:51.568Z,3.63
2023-08-14T08:27:19.382Z,3.80
2023-08-14T08:29:47.283Z,4.07
2023-08-14T08:32:16.897Z,3.50
2023-08-14T08:34:44.942Z,3.88
2023-08-14T08:37:12.801Z,4.00
2023-08-14T08:39:40.634Z,3.67
2023-08-14T08:42:10.830Z,3.38
2023-08-14T08:44:44.863Z,3.97
2023-08-14T08:47:18.913Z,4.22
2023-08-14T08:49:46.975Z,4.22
2023-08-14T08:52:16.818Z,4.47
2023-08-14T08:54:44.950Z,4.00
2023-08-14T08:57:14.069Z,4.03
2023-08-14T08:59:42.562Z,3.88
2023-08-14T09:02:10.737Z,4.25
2023-08-14T09:04:40.083Z,3.88
2023-08-14T09:07:08.563Z,3.55
2023-08-14T09:09:36.524Z,4.60
2023-08-14T09:12:04.705Z,3.90
2023-08-14T09:14:32.574Z,3.85
2023-08-14T09:17:04.005Z,3.75
2023-08-14T09:19:32.179Z,3.47
2023-08-14T09:22:01.662Z,3.35
2023-08-14T09:24:29.637Z,3.92
2023-08-14T09:26:57.460Z,3.83
2023-08-14T09:29:25.326Z,3.63
2023-08-14T09:31:54.403Z,3.80
2023-08-14T09:34:22.355Z,3.85
2023-08-14T09:36:51.212Z,3.58
2023-08-14T09:39:20.549Z,3.72
2023-08-14T09:41:49.222Z,3.58
2023-08-14T09:44:19.917Z,4.00
2023-08-14T09:46:49.844Z,3.50
2023-08-14T09:49:19.133Z,4.03
2023-08-14T09:51:56.349Z,3.70
2023-08-14T09:54:34.468Z,3.80
2023-08-14T09:57:08.549Z,3.65
2023-08-14T09:59:36.875Z,4.20
2023-08-14T10:02:07.524Z,3.80
2023-08-14T10:04:37.375Z,3.83
2023-08-14T10:07:05.970Z,4.03
2023-08-14T10:09:39.112Z,3.70
2023-08-14T10:12:13.482Z,3.65
2023-08-14T10:14:45.524Z,3.63
2023-08-14T10:17:19.111Z,3.78
2023-08-14T10:19:50.144Z,4.03
2023-08-14T10:22:19.510Z,3.70
2023-08-14T10:24:49.749Z,4.35
2023-08-14T10:27:17.664Z,3.83
2023-08-14T10:29:46.954Z,4.45
2023-08-14T10:32:15.709Z,4.20
2023-08-14T10:34:44.881Z,4.40
2023-08-14T10:37:26.972Z,4.20
2023-08-14T10:39:59.993Z,3.60
2023-08-14T10:42:27.876Z,4.00
2023-08-14T10:44:55.834Z,3.85
2023-08-14T10:47:24.660Z,4.30
2023-08-14T10:49:52.663Z,4.13
2023-08-14T10:52:21.749Z,4.35
2023-08-14T10:54:52.899Z,4.57
2023-08-14T10:57:30.543Z,3.53
2023-08-14T10:59:59.953Z,4.07
2023-08-14T11:02:30.276Z,3.70
2023-08-14T11:05:02.078Z,4.25
2023-08-14T11:07:30.496Z,4.00
2023-08-14T11:10:00.766Z,4.53
2023-08-14T11:12:33.181Z,4.30
2023-08-14T11:15:01.073Z,3.97
2023-08-14T11:17:29.552Z,3.92
2023-08-14T11:19:57.416Z,3.90
2023-08-14T11:22:25.256Z,4.03
2023-08-14T11:24:53.232Z,3.83
2023-08-14T11:27:21.084Z,4.22
2023-08-14T11:29:53.533Z,4.47
2023-08-14T11:32:23.479Z,4.40
2023-08-14T11:34:52.439Z,4.07
2023-08-14T11:37:20.348Z,4.07
2023-08-14T11:39:48.815Z,4.10
2023-08-14T11:42:17.674Z,4.13
2023-08-14T11:44:45.902Z,4.15
2023-08-14T11:47:15.137Z,4.45
2023-08-14T11:49:43.039Z,4.65
2023-08-14T11:52:10.865Z,4.50
2023-08-14T11:54:38.784Z,4.20
2023-08-14T11:57:08.741Z,3.80
2023-08-14T11:59:39.024Z,3.90
2023-08-14T12:02:08.036Z,4.27
2023-08-14T12:04:41.602Z,5.53
2023-08-14T12:07:09.677Z,4.43
2023-08-14T12:13:25.089Z,3.25
2023-08-14T12:15:53.461Z,3.03
2023-08-14T12:18:25.359Z,2.80
2023-08-14T12:24:45.673Z,6.15
2023-08-14T12:27:17.604Z,4.07
2023-08-14T12:29:46.469Z,4.10
2023-08-14T12:32:14.720Z,4.27
2023-08-14T12:34:41.741Z,4.03
2023-08-14T12:37:12.090Z,4.30
2023-08-14T12:39:40.063Z,3.83
2023-08-14T12:42:09.746Z,4.10
2023-08-14T12:44:37.641Z,3.63
2023-08-14T12:47:05.769Z,3.97
2023-08-14T12:49:37.757Z,4.10
2023-08-14T12:52:10.125Z,4.20
2023-08-14T12:54:40.090Z,3.87
2023-08-14T12:57:09.697Z,3.83
2023-08-14T12:59:37.526Z,4.37
2023-08-14T13:02:05.427Z,4.10
2023-08-14T13:04:36.264Z,4.23
2023-08-14T13:07:04.739Z,3.80
2023-08-14T13:09:32.592Z,4.57
2023-08-14T13:12:02.107Z,4.00
2023-08-14T13:14:31.338Z,4.03
2023-08-14T13:16:59.190Z,3.58
2023-08-14T13:19:27.024Z,3.90
2023-08-14T13:21:54.787Z,3.80
2023-08-14T13:24:22.603Z,3.83
2023-08-14T13:26:50.443Z,3.25
2023-08-14T13:29:18.328Z,4.10
2023-08-14T13:31:48.031Z,3.67
2023-08-14T13:34:15.922Z,4.43
2023-08-14T13:36:43.703Z,3.50
2023-08-14T13:39:11.597Z,3.03
2023-08-14T13:41:40.535Z,3.42
2023-08-14T13:44:08.418Z,3.40
2023-08-14T13:46:36.534Z,3.80
2023-08-14T13:49:07.722Z,3.45
2023-08-14T13:51:35.750Z,3.28
2023-08-14T13:54:03.971Z,3.45
2023-08-14T13:56:31.858Z,2.83
2023-08-14T13:59:00.447Z,3.05
2023-08-14T14:01:28.400Z,3.28
2023-08-14T14:03:56.286Z,3.15
2023-08-14T14:06:25.415Z,3.20
2023-08-14T14:08:53.228Z,3.42
2023-08-14T14:11:21.088Z,3.50
2023-08-14T14:13:48.915Z,4.38
2023-08-14T14:16:16.742Z,3.92
2023-08-14T14:18:44.567Z,4.18
2023-08-14T14:21:12.492Z,4.15
2023-08-14T14:23:41.629Z,3.97
2023-08-14T14:26:09.483Z,4.38
2023-08-14T14:28:37.252Z,3.97
2023-08-14T14:31:07.905Z,4.38
2023-08-14T14:33:35.767Z,4.53
2023-08-14T14:36:03.624Z,4.78
2023-08-14T14:38:31.400Z,4.72
2023-08-14T14:41:03.918Z,3.67
2023-08-14T14:43:31.686Z,3.50
2023-08-14T14:45:59.548Z,3.53
2023-08-14T14:48:27.403Z,3.97
2023-08-14T14:50:55.656Z,3.38
2023-08-14T14:53:23.844Z,3.58
2023-08-14T14:55:51.759Z,3.58
2023-08-14T14:58:21.226Z,3.60
2023-08-14T15:00:50.832Z,3.17
2023-08-14T15:03:18.944Z,3.33
2023-08-14T15:05:50.784Z,3.40
2023-08-14T15:08:18.668Z,3.10
2023-08-14T15:10:46.609Z,3.35
2023-08-14T15:13:14.678Z,3.28
2023-08-14T15:15:43.806Z,3.55
2023-08-14T15:18:11.717Z,4.00
2023-08-14T15:20:39.552Z,3.53
2023-08-14T15:23:07.373Z,3.72
2023-08-14T15:25:35.440Z,3.40
2023-08-14T15:28:03.264Z,3.35
2023-08-14T15:30:31.062Z,3.63
2023-08-14T15:33:00.276Z,3.75
2023-08-14T15:35:28.226Z,3.67
2023-08-14T15:37:56.010Z,3.83
2023-08-14T15:40:24.147Z,3.90
2023-08-14T15:42:51.987Z,3.78
2023-08-14T15:45:20.140Z,3.58
2023-08-14T15:47:48.214Z,3.83
2023-08-14T15:50:17.350Z,4.07
2023-08-14T15:52:45.145Z,3.65
2023-08-14T15:55:13.024Z,3.67
2023-08-14T15:57:40.816Z,3.40
2023-08-14T16:00:11.026Z,3.38
2023-08-14T16:02:38.810Z,3.40
2023-08-14T16:05:07.540Z,2.78
2023-08-14T16:07:36.897Z,3.10
2023-08-14T16:10:05.433Z,2.80
2023-08-14T16:12:33.250Z,3.30
2023-08-14T16:15:01.266Z,3.03
2023-08-14T16:17:29.620Z,3.00
2023-08-14T16:19:57.614Z,3.00
2023-08-14T16:22:25.474Z,2.95
2023-08-14T16:24:54.663Z,3.10
2023-08-14T16:27:22.747Z,3.35
2023-08-14T16:29:50.762Z,3.05
2023-08-14T16:32:18.545Z,3.70
2023-08-14T16:34:48.518Z,3.95
2023-08-14T16:37:16.365Z,3.17
2023-08-14T16:39:44.144Z,3.35
2023-08-14T16:42:13.278Z,3.60
2023-08-14T16:44:42.290Z,3.92
2023-08-14T16:47:10.141Z,3.63
2023-08-14T16:49:37.946Z,3.55
2023-08-14T16:54:47.184Z,3.45
2023-08-14T16:57:16.449Z,3.17
2023-08-14T16:59:44.319Z,3.65
2023-08-14T17:02:12.176Z,3.63
2023-08-14T17:04:40.072Z,3.53
2023-08-14T17:07:08.088Z,3.40
2023-08-14T17:09:35.992Z,3.78
2023-08-14T17:12:03.845Z,3.55
2023-08-14T17:14:33.074Z,3.35
2023-08-14T17:17:00.946Z,3.55
2023-08-14T17:19:28.980Z,3.30
2023-08-14T17:21:56.828Z,3.20
2023-08-14T17:24:24.807Z,3.67
2023-08-14T17:26:52.651Z,3.40
2023-08-14T17:29:21.627Z,3.78
2023-08-14T17:31:51.832Z,3.60
2023-08-14T17:34:19.729Z,3.70
2023-08-14T17:36:48.214Z,3.72
2023-08-14T17:39:16.144Z,4.07
2023-08-14T17:41:44.027Z,3.67
2023-08-14T17:44:11.868Z,3.70
2023-08-14T17:46:39.774Z,4.00
2023-08-14T17:49:08.959Z,3.80
2023-08-14T17:51:36.799Z,3.65
2023-08-14T17:54:05.446Z,3.97
2023-08-14T17:56:33.300Z,4.15
2023-08-14T17:59:01.153Z,3.97
2023-08-14T18:01:31.074Z,4.28
2023-08-14T18:04:00.648Z,4.28
2023-08-14T18:06:29.892Z,4.60
2023-08-14T18:08:57.803Z,4.25
2023-08-14T18:11:25.697Z,3.90
2023-08-14T18:13:53.828Z,4.30
2023-08-14T18:16:21.810Z,4.00
2023-08-14T18:18:51.525Z,3.83
2023-08-14T18:21:27.676Z,3.67
2023-08-14T18:24:05.724Z,4.50
2023-08-14T18:26:33.542Z,4.28
2023-08-14T18:29:02.114Z,3.75
2023-08-14T18:31:29.965Z,3.80
2023-08-14T18:33:57.876Z,3.90
2023-08-14T18:36:25.892Z,4.13
2023-08-14T18:38:53.772Z,4.78
2023-08-14T18:41:23.041Z,4.07
2023-08-14T18:43:50.950Z,4.00
2023-08-14T18:46:18.925Z,4.13
2023-08-14T18:48:46.845Z,4.55
2023-08-14T18:51:14.803Z,4.50
2023-08-14T18:53:42.963Z,4.15
2023-08-14T18:56:10.833Z,4.78
2023-08-14T18:58:40.043Z,4.68
2023-08-14T19:01:07.962Z,4.88
2023-08-14T19:03:35.859Z,4.15
2023-08-14T19:06:04.114Z,4.68
2023-08-14T19:08:31.985Z,4.72
2023-08-14T19:10:59.830Z,4.55
2023-08-14T19:13:27.648Z,4.32
2023-08-14T19:15:57.278Z,4.55
2023-08-14T19:18:25.146Z,4.60
2023-08-14T19:20:53.060Z,4.30
2023-08-14T19:23:20.931Z,4.72
2023-08-14T19:25:48.806Z,4.33
2023-08-14T19:28:22.233Z,4.65
2023-08-14T19:30:51.119Z,4.77
2023-08-14T19:33:20.426Z,4.63
2023-08-14T19:35:48.295Z,4.37
2023-08-14T19:38:16.128Z,4.57
2023-08-14T19:40:44.005Z,4.87
2023-08-14T19:43:11.865Z,4.40
2023-08-14T19:45:39.703Z,4.17
2023-08-14T19:48:08.110Z,4.33
2023-08-14T19:50:37.407Z,4.77
2023-08-14T19:53:05.678Z,4.40
2023-08-14T19:55:33.504Z,4.47
2023-08-14T19:58:01.355Z,5.00
2023-08-14T20:00:29.233Z,4.87
2023-08-14T20:02:57.191Z,4.40
2023-08-14T20:05:25.260Z,5.03
2023-08-14T20:07:54.446Z,5.00
2023-08-14T20:10:22.349Z,4.43
2023-08-14T20:12:50.412Z,5.90
2023-08-14T20:15:18.371Z,5.60
2023-08-14T20:17:46.330Z,4.73
2023-08-14T20:20:18.455Z,5.40
2023-08-14T20:22:46.384Z,5.63
2023-08-14T20:25:15.894Z,5.17
2023-08-14T20:27:44.331Z,5.50
2023-08-14T20:30:13.714Z,4.90
2023-08-14T20:32:41.635Z,5.13
2023-08-14T20:35:10.169Z,5.20
2023-08-14T20:37:37.997Z,5.30
2023-08-14T20:40:07.015Z,4.97
2023-08-14T20:42:36.208Z,5.40
2023-08-14T20:45:04.332Z,4.93
2023-08-14T20:47:32.256Z,5.10
2023-08-14T20:50:00.398Z,5.37
2023-08-14T20:52:28.309Z,5.60
2023-08-14T20:54:56.150Z,5.57
2023-08-14T20:57:24.017Z,5.40
2023-08-14T20:59:53.169Z,4.53
2023-08-14T21:02:21.048Z,5.33
2023-08-14T21:04:48.923Z,5.47
2023-08-14T21:07:16.847Z,5.57
2023-08-14T21:09:44.690Z,5.60
2023-08-14T21:12:12.519Z,5.33
2023-08-14T21:14:40.356Z,5.27
2023-08-14T21:17:09.679Z,5.43
2023-08-14T21:19:37.518Z,5.77
2023-08-14T21:22:05.493Z,5.23
2023-08-14T21:24:33.341Z,5.70
2023-08-14T21:27:01.234Z,5.50
2023-08-14T21:29:29.181Z,5.23
2023-08-14T21:31:57.037Z,5.27
2023-08-14T21:34:26.287Z,5.20
2023-08-14T21:36:55.163Z,5.30
2023-08-14T21:39:23.828Z,5.40
2023-08-14T21:41:51.669Z,5.20
2023-08-14T21:44:19.660Z,5.10
2023-08-14T21:46:47.525Z,5.90
2023-08-14T21:49:15.592Z,5.80
2023-08-14T21:51:44.833Z,5.97
2023-08-14T21:54:18.465Z,5.20
2023-08-14T21:56:46.955Z,6.17
2023-08-14T21:59:14.920Z,5.73
2023-08-14T22:01:43.905Z,6.37
2023-08-14T22:04:11.925Z,5.93
2023-08-14T22:06:39.794Z,6.40
2023-08-14T22:09:09.910Z,6.50
2023-08-14T22:11:37.752Z,6.30
2023-08-14T22:14:06.089Z,6.43
2023-08-14T22:16:34.067Z,6.20
2023-08-14T22:19:01.976Z,6.40
2023-08-14T22:21:29.896Z,6.53
2023-08-14T22:23:57.731Z,6.23
2023-08-14T22:26:27.023Z,7.00
2023-08-14T22:28:54.938Z,5.93
2023-08-14T22:31:23.670Z,5.73
2023-08-14T22:33:51.550Z,6.77
2023-08-14T22:36:19.435Z,6.23
2023-08-14T22:38:47.309Z,6.00
2023-08-14T22:41:15.184Z,6.57
2023-08-14T22:43:44.393Z,6.13
2023-08-14T22:46:12.209Z,6.20
2023-08-14T22:48:40.059Z,6.23
2023-08-14T22:51:07.985Z,5.80
2023-08-14T22:53:35.829Z,5.67
2023-08-14T22:56:03.678Z,5.80
2023-08-14T22:58:31.534Z,5.77
2023-08-14T23:01:00.731Z,5.63
2023-08-14T23:03:28.604Z,5.37
2023-08-14T23:05:56.425Z,5.97
2023-08-14T23:08:24.448Z,5.23
2023-08-14T23:10:52.322Z,6.10
2023-08-14T23:13:20.183Z,6.30
2023-08-14T23:15:48.065Z,5.67
2023-08-14T23:18:17.260Z,5.73
2023-08-14T23:20:45.513Z,7.50
2023-08-14T23:23:13.381Z,6.63
2023-08-14T23:25:41.288Z,6.20
2023-08-14T23:28:09.158Z,6.80
2023-08-14T23:30:38.643Z,6.50
2023-08-14T23:33:07.102Z,6.43
2023-08-14T23:35:36.527Z,6.37
2023-08-14T23:38:05.107Z,6.20
2023-08-14T23:40:33.004Z,5.93
2023-08-14T23:43:00.896Z,6.57
2023-08-14T23:45:28.764Z,6.70
2023-08-14T23:47:56.602Z,6.07
2023-08-14T23:50:24.478Z,6.03
2023-08-14T23:52:54.001Z,6.33
2023-08-14T23:55:21.856Z,5.70
2023-08-14T23:57:49.723Z,5.67
